createdAt,value
2023-04-04T00:00:27.823Z,0.73
2023-04-04T00:02:54.932Z,1.13
2023-04-04T00:05:22.231Z,1.15
2023-04-04T00:07:49.502Z,0.98
2023-04-04T00:10:17.164Z,0.40
2023-04-04T00:12:44.488Z,0.98
2023-04-04T00:15:11.925Z,0.60
2023-04-04T00:17:39.161Z,0.50
2023-04-04T00:20:07.611Z,0.65
2023-04-04T00:22:34.742Z,0.80
2023-04-04T00:25:01.757Z,0.90
2023-04-04T00:27:28.774Z,0.90
2023-04-04T00:29:55.997Z,1.02
2023-04-04T00:32:23.186Z,0.40
2023-04-04T00:34:54.257Z,0.95
2023-04-04T00:37:21.834Z,1.08
2023-04-04T00:39:50.106Z,0.50
2023-04-04T00:42:17.523Z,1.30
2023-04-04T00:44:44.817Z,1.00
2023-04-04T00:47:11.922Z,0.70
2023-04-04T00:49:39.020Z,0.88
2023-04-04T00:52:07.908Z,0.40
2023-04-04T00:54:35.889Z,0.32
2023-04-04T00:57:07.189Z,1.05
2023-04-04T00:59:34.596Z,1.13
2023-04-04T01:02:01.783Z,0.50
2023-04-04T01:04:32.149Z,0.82
2023-04-04T01:09:27.501Z,1.15
2023-04-04T01:11:55.892Z,0.90
2023-04-04T01:14:23.544Z,0.55
2023-04-04T01:16:51.944Z,0.70
2023-04-04T01:19:33.839Z,0.80
2023-04-04T01:22:02.259Z,0.63
2023-04-04T01:24:33.892Z,1.05
2023-04-04T01:27:00.974Z,0.88
2023-04-04T01:29:28.148Z,0.63
2023-04-04T01:32:08.278Z,0.50
2023-04-04T01:35:01.666Z,0.75
2023-04-04T01:37:40.782Z,0.50
2023-04-04T01:40:25.244Z,0.77
2023-04-04T01:42:52.929Z,1.48
2023-04-04T01:45:23.128Z,0.68
2023-04-04T01:47:50.347Z,0.70
2023-04-04T01:50:17.557Z,0.88
2023-04-04T01:52:44.623Z,1.00
2023-04-04T01:55:11.686Z,0.63
2023-04-04T01:57:38.721Z,1.45
2023-04-04T02:00:06.452Z,0.77
2023-04-04T02:02:34.237Z,0.73
2023-04-04T02:05:01.976Z,1.00
2023-04-04T02:07:29.014Z,0.98
2023-04-04T02:09:56.121Z,1.23
2023-04-04T02:12:23.854Z,0.75
2023-04-04T02:14:50.923Z,1.33
2023-04-04T02:17:18.324Z,0.75
2023-04-04T02:19:45.386Z,1.08
2023-04-04T02:22:12.434Z,0.85
2023-04-04T02:24:39.443Z,0.98
2023-04-04T02:27:06.862Z,0.70
2023-04-04T02:29:34.287Z,0.73
2023-04-04T02:32:01.345Z,2.38
2023-04-04T02:34:29.052Z,0.77
2023-04-04T02:36:56.122Z,0.77
2023-04-04T02:39:23.269Z,0.60
2023-04-04T02:41:51.291Z,0.50
2023-04-04T02:44:18.302Z,0.77
2023-04-04T02:46:45.345Z,1.48
2023-04-04T02:49:12.691Z,0.63
2023-04-04T02:51:39.812Z,0.98
2023-04-04T02:54:07.147Z,1.08
2023-04-04T02:56:34.412Z,0.95
2023-04-04T02:59:01.499Z,0.60
2023-04-04T03:01:28.614Z,1.10
2023-04-04T03:03:56.155Z,0.43
2023-04-04T03:06:23.506Z,1.30
2023-04-04T03:08:50.527Z,0.80
2023-04-04T03:11:21.599Z,0.70
2023-04-04T03:13:51.289Z,0.82
2023-04-04T03:16:20.287Z,1.13
2023-04-04T03:18:47.565Z,0.70
2023-04-04T03:21:14.602Z,1.05
2023-04-04T03:23:43.217Z,0.73
2023-04-04T03:26:10.798Z,0.40
2023-04-04T03:28:38.316Z,0.77
2023-04-04T03:31:06.462Z,0.70
2023-04-04T03:33:37.988Z,0.68
2023-04-04T03:36:14.976Z,0.75
2023-04-04T03:38:42.072Z,1.17
2023-04-04T03:41:09.421Z,1.38
2023-04-04T03:43:36.458Z,0.30
2023-04-04T03:46:04.713Z,1.05
2023-04-04T03:48:32.149Z,2.40
2023-04-04T03:50:59.592Z,1.15
2023-04-04T03:53:28.164Z,1.08
2023-04-04T03:55:56.837Z,1.00
2023-04-04T03:58:25.384Z,2.58
2023-04-04T04:00:52.415Z,1.15
2023-04-04T04:03:19.563Z,0.80
2023-04-04T04:05:46.917Z,0.60
2023-04-04T04:08:14.354Z,0.63
2023-04-04T04:10:41.695Z,0.65
2023-04-04T04:13:09.002Z,0.73
2023-04-04T04:15:36.049Z,1.02
2023-04-04T04:18:03.150Z,0.30
2023-04-04T04:20:30.192Z,0.80
2023-04-04T04:22:57.244Z,0.82
2023-04-04T04:25:24.340Z,0.82
2023-04-04T04:27:51.567Z,1.30
2023-04-04T04:30:18.676Z,0.77
2023-04-04T04:32:45.744Z,0.60
2023-04-04T04:35:13.023Z,0.47
2023-04-04T04:37:40.076Z,1.20
2023-04-04T04:40:07.906Z,2.15
2023-04-04T04:42:35.034Z,1.75
2023-04-04T04:45:02.287Z,1.35
2023-04-04T04:47:32.137Z,1.65
2023-04-04T04:49:59.257Z,2.00
2023-04-04T04:52:26.493Z,1.08
2023-04-04T04:54:56.001Z,1.25
2023-04-04T04:57:23.364Z,0.87
2023-04-04T04:59:50.663Z,1.65
2023-04-04T05:02:17.796Z,1.33
2023-04-04T05:04:47.026Z,1.23
2023-04-04T05:07:14.418Z,1.80
2023-04-04T05:09:41.498Z,0.90
2023-04-04T05:12:08.612Z,1.60
2023-04-04T05:14:36.191Z,1.67
2023-04-04T05:17:03.321Z,1.45
2023-04-04T05:19:30.442Z,1.27
2023-04-04T05:21:57.805Z,2.47
2023-04-04T05:24:24.876Z,1.15
2023-04-04T05:26:52.145Z,2.08
2023-04-04T05:29:19.223Z,1.40
2023-04-04T05:31:46.549Z,1.30
2023-04-04T05:34:14.601Z,1.65
2023-04-04T05:36:41.978Z,2.83
2023-04-04T05:39:09.075Z,1.58
2023-04-04T05:41:36.610Z,1.33
2023-04-04T05:44:03.742Z,2.78
2023-04-04T05:46:31.873Z,2.03
2023-04-04T05:48:58.887Z,1.77
2023-04-04T05:51:26.045Z,5.05
2023-04-04T05:53:53.099Z,2.45
2023-04-04T05:56:20.247Z,1.25
2023-04-04T05:58:47.394Z,1.85
2023-04-04T06:01:14.630Z,4.72
2023-04-04T06:03:41.804Z,1.63
2023-04-04T06:06:09.186Z,2.20
2023-04-04T06:08:50.251Z,1.80
2023-04-04T06:11:20.024Z,3.72
2023-04-04T06:13:47.084Z,3.05
2023-04-04T06:16:14.449Z,3.45
2023-04-04T06:18:42.338Z,2.35
2023-04-04T06:21:09.451Z,3.17
2023-04-04T06:23:37.890Z,5.45
2023-04-04T06:26:05.423Z,1.80
2023-04-04T06:28:32.603Z,2.47
2023-04-04T06:31:01.163Z,2.08
2023-04-04T06:33:28.333Z,4.88
2023-04-04T06:35:55.662Z,4.75
2023-04-04T06:38:22.770Z,2.92
2023-04-04T06:40:49.990Z,4.30
2023-04-04T06:43:18.097Z,3.65
2023-04-04T06:45:45.158Z,7.65
2023-04-04T06:48:12.463Z,3.22
2023-04-04T06:50:39.934Z,2.15
2023-04-04T06:53:07.439Z,2.45
2023-04-04T06:55:35.520Z,2.15
2023-04-04T06:58:03.091Z,2.28
2023-04-04T07:00:30.173Z,4.72
2023-04-04T07:03:01.344Z,3.50
2023-04-04T07:05:29.350Z,5.43
2023-04-04T07:07:57.278Z,5.30
2023-04-04T07:10:27.626Z,3.65
2023-04-04T07:15:21.911Z,4.60
2023-04-04T07:17:49.583Z,4.95
2023-04-04T07:20:16.715Z,5.60
2023-04-04T07:22:44.585Z,3.25
2023-04-04T07:25:13.449Z,4.55
2023-04-04T07:27:44.025Z,4.20
2023-04-04T07:30:12.025Z,5.90
2023-04-04T07:32:39.412Z,4.20
2023-04-04T07:35:08.225Z,2.83
2023-04-04T07:37:38.187Z,4.15
2023-04-04T07:40:08.804Z,3.42
2023-04-04T07:42:36.108Z,5.18
2023-04-04T07:45:03.331Z,2.50
2023-04-04T07:47:30.413Z,3.53
2023-04-04T07:49:57.483Z,7.28
2023-04-04T07:52:25.356Z,5.55
2023-04-04T07:54:53.177Z,7.05
2023-04-04T07:57:20.283Z,5.35
2023-04-04T07:59:47.467Z,3.15
2023-04-04T08:02:14.645Z,3.83
2023-04-04T08:04:42.693Z,5.10
2023-04-04T08:07:09.825Z,6.53
2023-04-04T08:09:37.197Z,4.50
2023-04-04T08:12:06.348Z,5.28
2023-04-04T08:14:33.953Z,5.13
2023-04-04T08:17:02.439Z,4.15
2023-04-04T08:19:29.529Z,4.07
2023-04-04T08:21:56.889Z,2.20
2023-04-04T08:24:25.557Z,6.20
2023-04-04T08:29:33.308Z,3.50
2023-04-04T08:32:01.246Z,4.22
2023-04-04T08:34:35.951Z,2.63
2023-04-04T08:37:04.700Z,6.25
2023-04-04T08:39:31.807Z,5.75
2023-04-04T08:42:05.626Z,4.13
2023-04-04T08:44:34.801Z,2.63
2023-04-04T08:47:09.760Z,2.55
2023-04-04T08:49:41.215Z,2.85
2023-04-04T08:52:12.059Z,3.50
2023-04-04T08:54:40.822Z,3.58
2023-04-04T08:57:08.807Z,3.63
2023-04-04T08:59:36.789Z,6.25
2023-04-04T09:02:29.705Z,3.72
2023-04-04T09:05:06.383Z,4.05
2023-04-04T09:07:39.447Z,3.38
2023-04-04T09:10:10.665Z,7.28
2023-04-04T09:12:44.420Z,3.92
2023-04-04T09:15:12.436Z,2.42
2023-04-04T09:17:40.723Z,2.55
2023-04-04T09:20:37.321Z,2.88
2023-04-04T09:23:15.712Z,3.05
2023-04-04T09:28:23.274Z,3.13
2023-04-04T09:30:51.843Z,4.18
2023-04-04T09:33:21.774Z,2.60
2023-04-04T09:35:57.734Z,1.75
2023-04-04T09:38:27.669Z,2.65
2023-04-04T09:43:24.527Z,3.80
2023-04-04T09:45:52.626Z,3.50
2023-04-04T09:48:37.220Z,2.83
2023-04-04T09:51:06.347Z,4.43
2023-04-04T09:53:38.658Z,6.53
2023-04-04T09:56:06.965Z,2.50
2023-04-04T09:58:44.116Z,6.90
2023-04-04T10:01:18.599Z,4.47
2023-04-04T10:03:53.757Z,7.50
2023-04-04T10:06:21.573Z,4.40
2023-04-04T10:08:50.108Z,4.15
2023-04-04T10:11:33.797Z,3.05
2023-04-04T10:14:04.013Z,4.63
2023-04-04T10:16:37.284Z,3.05
2023-04-04T10:19:07.899Z,3.20
2023-04-04T10:21:36.045Z,3.85
2023-04-04T10:24:09.527Z,3.15
2023-04-04T10:26:37.226Z,1.77
2023-04-04T10:29:06.118Z,3.20
2023-04-04T10:31:38.495Z,3.85
2023-04-04T10:34:30.015Z,3.80
2023-04-04T10:37:13.896Z,5.45
2023-04-04T10:39:52.237Z,5.78
2023-04-04T10:42:19.992Z,4.05
2023-04-04T10:44:47.781Z,5.28
2023-04-04T10:47:18.398Z,6.25
2023-04-04T10:49:47.023Z,2.97
2023-04-04T10:52:19.036Z,5.20
2023-04-04T10:54:48.457Z,5.88
2023-04-04T10:57:16.466Z,4.05
2023-04-04T11:00:01.819Z,7.20
2023-04-04T11:02:57.009Z,5.88
2023-04-04T11:05:47.318Z,6.55
2023-04-04T11:08:24.452Z,6.10
2023-04-04T11:10:53.542Z,6.47
2023-04-04T11:13:27.408Z,3.88
2023-04-04T11:16:00.158Z,6.07
2023-04-04T11:18:48.070Z,8.65
2023-04-04T11:21:24.186Z,5.30
2023-04-04T11:24:14.946Z,5.13
2023-04-04T11:26:46.235Z,5.53
2023-04-04T11:29:22.598Z,4.38
2023-04-04T11:31:51.493Z,4.25
2023-04-04T11:34:33.042Z,3.45
2023-04-04T11:37:17.775Z,5.45
2023-04-04T11:39:57.609Z,4.57
2023-04-04T11:42:25.164Z,6.30
2023-04-04T11:45:04.063Z,4.60
2023-04-04T11:47:31.705Z,2.50
2023-04-04T11:50:01.183Z,4.65
2023-04-04T11:52:35.609Z,2.67
2023-04-04T11:55:03.049Z,5.75
2023-04-04T11:57:30.145Z,3.28
2023-04-04T11:59:57.745Z,3.63
2023-04-04T12:02:27.864Z,4.90
2023-04-04T12:04:56.149Z,5.13
2023-04-04T12:07:25.298Z,4.47
2023-04-04T12:09:52.818Z,7.27
2023-04-04T12:12:20.209Z,9.05
2023-04-04T12:14:47.824Z,20.38
2023-04-04T12:17:16.960Z,4.35
2023-04-04T12:19:44.761Z,3.33
2023-04-04T12:22:11.961Z,4.43
2023-04-04T12:24:39.492Z,4.57
2023-04-04T12:27:07.362Z,5.05
2023-04-04T12:29:37.679Z,4.43
2023-04-04T12:32:06.186Z,4.03
2023-04-04T12:34:35.294Z,2.95
2023-04-04T12:37:04.219Z,3.60
2023-04-04T12:39:32.044Z,4.30
2023-04-04T12:42:03.873Z,2.33
2023-04-04T12:44:37.856Z,5.03
2023-04-04T12:47:07.052Z,3.97
2023-04-04T12:49:43.167Z,4.57
2023-04-04T12:52:22.111Z,3.33
2023-04-04T12:55:06.623Z,3.63
2023-04-04T12:57:35.626Z,3.08
2023-04-04T13:00:04.691Z,3.88
2023-04-04T13:02:32.251Z,3.72
2023-04-04T13:05:00.396Z,2.85
2023-04-04T13:07:32.596Z,3.97
2023-04-04T13:10:05.141Z,3.47
2023-04-04T13:12:56.909Z,3.22
2023-04-04T13:15:45.622Z,2.50
2023-04-04T13:18:18.263Z,4.10
2023-04-04T13:20:45.476Z,3.70
2023-04-04T13:23:13.678Z,3.60
2023-04-04T13:25:41.885Z,5.40
2023-04-04T13:28:11.661Z,4.15
2023-04-04T13:30:43.649Z,5.30
2023-04-04T13:33:11.393Z,8.23
2023-04-04T13:35:42.309Z,4.15
2023-04-04T13:38:09.508Z,3.03
2023-04-04T13:40:36.702Z,2.10
2023-04-04T13:43:04.433Z,4.15
2023-04-04T13:45:35.264Z,4.13
2023-04-04T13:48:04.152Z,2.78
2023-04-04T13:50:33.141Z,4.28
2023-04-04T13:53:00.348Z,3.38
2023-04-04T13:55:28.166Z,6.18
2023-04-04T13:57:55.959Z,3.65
2023-04-04T14:00:24.464Z,2.00
2023-04-04T14:02:54.820Z,3.70
2023-04-04T14:05:23.170Z,4.63
2023-04-04T14:07:50.806Z,2.60
2023-04-04T14:10:18.031Z,2.53
2023-04-04T14:12:45.238Z,2.97
2023-04-04T14:15:12.721Z,4.07
2023-04-04T14:17:39.964Z,3.28
2023-04-04T14:20:08.031Z,2.70
2023-04-04T14:22:35.556Z,2.85
2023-04-04T14:25:03.250Z,3.97
2023-04-04T14:27:30.260Z,5.50
2023-04-04T14:29:57.271Z,2.75
2023-04-04T14:32:25.745Z,3.08
2023-04-04T14:34:52.969Z,2.97
2023-04-04T14:37:20.440Z,4.43
2023-04-04T14:39:47.691Z,8.93
2023-04-04T14:42:14.954Z,4.65
2023-04-04T14:44:42.811Z,9.38
2023-04-04T14:47:09.948Z,7.13
2023-04-04T14:49:37.006Z,4.30
2023-04-04T14:52:04.609Z,4.78
2023-04-04T14:54:31.702Z,5.53
2023-04-04T14:56:59.270Z,10.75
2023-04-04T14:59:26.459Z,4.90
2023-04-04T15:01:53.646Z,3.63
2023-04-04T15:04:20.740Z,3.47
2023-04-04T15:06:47.846Z,3.58
2023-04-04T15:09:16.516Z,3.35
2023-04-04T15:11:43.635Z,5.72
2023-04-04T15:14:10.789Z,6.13
2023-04-04T15:16:38.511Z,4.95
2023-04-04T15:19:05.693Z,5.38
2023-04-04T15:21:32.897Z,7.70
2023-04-04T15:24:00.050Z,7.68
2023-04-04T15:26:27.177Z,4.28
2023-04-04T15:28:54.322Z,4.93
2023-04-04T15:31:21.439Z,5.03
2023-04-04T15:33:49.371Z,4.63
2023-04-04T15:36:16.454Z,4.85
2023-04-04T15:38:43.622Z,2.95
2023-04-04T15:41:11.578Z,6.68
2023-04-04T15:43:38.697Z,4.68
2023-04-04T15:46:06.484Z,4.65
2023-04-04T15:48:34.586Z,3.53
2023-04-04T15:51:03.340Z,3.42
2023-04-04T15:53:31.587Z,5.25
2023-04-04T15:55:59.570Z,4.75
2023-04-04T15:58:26.883Z,5.63
2023-04-04T16:00:55.761Z,2.08
2023-04-04T16:03:24.234Z,4.60
2023-04-04T16:05:51.307Z,4.55
2023-04-04T16:08:18.596Z,5.53
2023-04-04T16:10:45.664Z,2.30
2023-04-04T16:13:14.259Z,4.18
2023-04-04T16:15:41.359Z,4.80
2023-04-04T16:18:09.020Z,2.35
2023-04-04T16:20:36.352Z,2.08
2023-04-04T16:23:03.491Z,3.13
2023-04-04T16:25:30.687Z,5.43
2023-04-04T16:27:57.856Z,6.88
2023-04-04T16:30:25.142Z,5.60
2023-04-04T16:32:52.285Z,2.05
2023-04-04T16:35:19.369Z,3.47
2023-04-04T16:37:46.529Z,5.88
2023-04-04T16:40:15.281Z,2.75
2023-04-04T16:42:42.631Z,2.45
2023-04-04T16:45:10.549Z,4.40
2023-04-04T16:47:37.998Z,4.75
2023-04-04T16:50:06.696Z,3.72
2023-04-04T16:52:33.824Z,2.97
2023-04-04T16:55:01.161Z,3.88
2023-04-04T16:57:28.267Z,3.22
2023-04-04T16:59:55.434Z,2.83
2023-04-04T17:02:22.573Z,2.20
2023-04-04T17:04:49.745Z,1.63
2023-04-04T17:07:17.084Z,2.88
2023-04-04T17:09:45.123Z,4.05
2023-04-04T17:12:13.665Z,8.77
2023-04-04T17:14:40.965Z,3.08
2023-04-04T17:17:09.041Z,2.20
2023-04-04T17:19:37.354Z,4.63
2023-04-04T17:22:04.480Z,1.60
2023-04-04T17:24:32.215Z,2.72
2023-04-04T17:27:01.999Z,2.88
2023-04-04T17:29:29.159Z,5.78
2023-04-04T17:31:57.198Z,1.52
2023-04-04T17:34:24.604Z,4.57
2023-04-04T17:36:52.956Z,3.10
2023-04-04T17:39:20.314Z,3.55
2023-04-04T17:41:50.495Z,2.40
2023-04-04T17:44:18.759Z,4.38
2023-04-04T17:46:46.340Z,2.08
2023-04-04T17:49:19.635Z,4.90
2023-04-04T17:51:48.941Z,3.00
2023-04-04T17:54:17.944Z,2.92
2023-04-04T17:56:48.965Z,3.75
2023-04-04T17:59:17.745Z,1.35
2023-04-04T18:01:45.091Z,3.97
2023-04-04T18:04:12.654Z,3.65
2023-04-04T18:06:42.037Z,1.92
2023-04-04T18:09:10.537Z,3.50
2023-04-04T18:11:39.465Z,2.08
2023-04-04T18:14:06.926Z,1.40
2023-04-04T18:16:39.605Z,1.77
2023-04-04T18:19:08.221Z,2.00
2023-04-04T18:21:35.741Z,1.25
2023-04-04T18:24:02.772Z,1.40
2023-04-04T18:26:29.822Z,3.95
2023-04-04T18:28:56.891Z,1.45
2023-04-04T18:31:28.014Z,1.30
2023-04-04T18:33:55.898Z,2.60
2023-04-04T18:36:23.080Z,1.75
2023-04-04T18:38:50.604Z,1.30
2023-04-04T18:41:17.733Z,1.95
2023-04-04T18:43:46.390Z,2.90
2023-04-04T18:46:13.487Z,1.38
2023-04-04T18:48:41.570Z,1.58
2023-04-04T18:51:08.689Z,1.65
2023-04-04T18:53:35.728Z,1.60
2023-04-04T18:56:02.780Z,1.10
2023-04-04T18:58:29.832Z,1.98
2023-04-04T19:00:58.609Z,2.80
2023-04-04T19:03:26.653Z,1.45
2023-04-04T19:05:55.699Z,1.27
2023-04-04T19:08:24.230Z,4.65
2023-04-04T19:10:51.750Z,1.80
2023-04-04T19:13:18.848Z,1.48
2023-04-04T19:15:47.062Z,1.85
2023-04-04T19:18:14.257Z,2.22
2023-04-04T19:20:43.587Z,1.35
2023-04-04T19:23:10.713Z,2.97
2023-04-04T19:25:37.936Z,1.85
2023-04-04T19:28:05.395Z,1.58
2023-04-04T19:30:49.108Z,1.45
2023-04-04T19:33:21.714Z,2.13
2023-04-04T19:35:59.000Z,1.08
2023-04-04T19:38:34.636Z,1.55
2023-04-04T19:41:35.378Z,1.17
2023-04-04T19:44:03.430Z,1.38
2023-04-04T19:46:33.149Z,1.10
2023-04-04T19:49:14.211Z,1.45
2023-04-04T19:51:56.636Z,1.10
2023-04-04T19:54:29.305Z,1.40
2023-04-04T19:57:02.223Z,3.38
2023-04-04T19:59:57.915Z,1.58
2023-04-04T20:02:50.025Z,1.10
2023-04-04T20:05:57.003Z,0.93
2023-04-04T20:08:24.221Z,1.90
2023-04-04T20:10:55.888Z,1.20
2023-04-04T20:13:22.951Z,1.33
2023-04-04T20:16:03.831Z,1.42
2023-04-04T20:18:33.180Z,1.45
2023-04-04T20:21:03.456Z,1.25
2023-04-04T20:23:31.426Z,1.85
2023-04-04T20:26:06.454Z,1.13
2023-04-04T20:28:34.931Z,1.27
2023-04-04T20:31:05.629Z,1.08
2023-04-04T20:33:37.360Z,3.50
2023-04-04T20:36:13.757Z,2.63
2023-04-04T20:38:41.818Z,1.20
2023-04-04T20:41:17.794Z,0.88
2023-04-04T20:43:53.839Z,1.48
2023-04-04T20:46:22.915Z,1.10
2023-04-04T20:48:51.373Z,0.77
2023-04-04T20:51:24.683Z,1.88
2023-04-04T20:53:53.364Z,0.82
2023-04-04T20:56:46.503Z,0.93
2023-04-04T20:59:35.830Z,0.77
2023-04-04T21:02:12.532Z,2.15
2023-04-04T21:04:42.205Z,1.13
2023-04-04T21:07:09.316Z,1.10
2023-04-04T21:09:36.435Z,1.40
2023-04-04T21:12:04.905Z,0.60
2023-04-04T21:14:38.279Z,0.90
2023-04-04T21:17:07.431Z,1.25
2023-04-04T21:19:34.570Z,1.20
2023-04-04T21:22:01.704Z,2.03
2023-04-04T21:24:34.617Z,1.40
2023-04-04T21:27:05.416Z,1.15
2023-04-04T21:29:32.486Z,0.82
2023-04-04T21:32:00.262Z,1.10
2023-04-04T21:34:28.454Z,0.77
2023-04-04T21:37:02.253Z,0.90
2023-04-04T21:39:30.597Z,0.65
2023-04-04T21:42:00.141Z,0.75
2023-04-04T21:44:27.210Z,0.87
2023-04-04T21:46:55.371Z,0.80
2023-04-04T21:49:23.347Z,0.85
2023-04-04T21:51:50.836Z,1.65
2023-04-04T21:54:19.478Z,1.60
2023-04-04T21:56:46.735Z,1.95
2023-04-04T21:59:14.002Z,0.90
2023-04-04T22:01:41.498Z,0.75
2023-04-04T22:04:08.843Z,0.70
2023-04-04T22:06:36.481Z,0.60
2023-04-04T22:09:04.352Z,0.90
2023-04-04T22:11:34.699Z,0.73
2023-04-04T22:14:07.472Z,1.40
2023-04-04T22:16:40.034Z,0.85
2023-04-04T22:19:10.993Z,0.95
2023-04-04T22:21:38.822Z,0.90
2023-04-04T22:24:06.821Z,1.05
2023-04-04T22:26:34.315Z,0.80
2023-04-04T22:29:03.514Z,1.20
2023-04-04T22:31:31.373Z,0.80
2023-04-04T22:33:58.517Z,0.85
2023-04-04T22:36:25.618Z,0.77
2023-04-04T22:38:57.321Z,0.90
2023-04-04T22:41:29.356Z,0.88
2023-04-04T22:43:57.912Z,1.40
2023-04-04T22:46:25.952Z,1.02
2023-04-04T22:49:07.384Z,0.75
2023-04-04T22:51:45.702Z,0.90
2023-04-04T22:54:15.427Z,0.88
2023-04-04T22:56:42.829Z,1.23
2023-04-04T22:59:10.405Z,1.33
2023-04-04T23:01:37.580Z,0.70
2023-04-04T23:04:04.831Z,1.02
2023-04-04T23:06:31.919Z,0.70
2023-04-04T23:08:59.150Z,0.70
2023-04-04T23:11:27.540Z,0.95
2023-04-04T23:13:57.155Z,1.20
2023-04-04T23:16:26.385Z,0.90
2023-04-04T23:18:53.720Z,0.70
2023-04-04T23:21:22.346Z,0.77
2023-04-04T23:23:49.521Z,1.08
2023-04-04T23:26:16.601Z,0.50
2023-04-04T23:28:43.729Z,0.75
2023-04-04T23:31:10.919Z,0.73
2023-04-04T23:33:38.125Z,1.10
2023-04-04T23:36:05.551Z,0.73
2023-04-04T23:38:32.710Z,1.13
2023-04-04T23:40:59.722Z,1.27
2023-04-04T23:43:26.824Z,0.60
2023-04-04T23:45:54.095Z,0.80
2023-04-04T23:48:21.544Z,0.70
2023-04-04T23:50:50.315Z,0.98
2023-04-04T23:53:17.506Z,1.75
2023-04-04T23:55:44.628Z,1.20
2023-04-04T23:58:11.864Z,1.15
